Time;durP1;ratioP1;P1;durP2;ratioP2;P2;SDS_P1;SDS_P2;PMS_P1;PMS_P2;Temp;Humidity;BMP_temperature;BMP_pressure;BME280_temperature;BME280_humidity;BME280_pressure;Samples;Min_cycle;Max_cycle;Signal;HPM_P1;HPM_P2
2024/01/27 00:00:24;;;;;;;;;;;;;;;;;;4847179;28;119356;-67
2024/01/27 00:02:51;;;;;;;;;;;;;;;;;;4778242;28;98379;-67
2024/01/27 00:05:18;;;;;;;;;;;;;;;;;;4961072;28;37516;-67
2024/01/27 00:07:45;;;;;;;;;;;;;;;;;;4987187;28;25055;-68
2024/01/27 00:10:12;;;;;;;;;;;;;;;;;;4981719;28;25136;-67
2024/01/27 00:12:40;;;;;;;;;;;;;;;;;;4989522;28;25114;-68
2024/01/27 00:15:07;;;;;;;;;;;;;;;;;;4983177;28;34300;-68
2024/01/27 00:17:35;;;;;;;;;;;;;;;;;;4942204;28;58107;-68
2024/01/27 00:20:02;;;;;;;;;;;;;;;;;;4986147;28;25077;-68
2024/01/27 00:22:30;;;;;;;;;;;;;;;;;;4975993;28;25070;-68
2024/01/27 00:24:57;;;;;;;;;;;;;;;;;;4960946;28;25127;-68
2024/01/27 00:27:24;;;;;;;;;;;;;;;;;;4980579;28;25214;-68
2024/01/27 00:29:51;;;;;;;;;;;;;;;;;;5004834;28;25125;-67
2024/01/27 00:32:18;;;;;;;;;;;;;;;;;;4982735;28;25071;-67
2024/01/27 00:34:46;;;;;;;;;;;;;;;;;;4974495;28;25077;-67
2024/01/27 00:37:13;;;;;;;;;;;;;;;;;;4977379;28;25155;-67
2024/01/27 00:39:40;;;;;;;;;;;;;;;;;;4968597;28;25057;-67
2024/01/27 00:42:07;;;;;;;;;;;;;;;;;;4973440;28;25095;-67
2024/01/27 00:44:34;;;;;;;;;;;;;;;;;;4976226;28;25162;-68
2024/01/27 00:47:01;;;;;;;;;;;;;;;;;;4981623;28;25115;-68
2024/01/27 00:49:28;;;;;;;;;;;;;;;;;;4980979;28;25096;-68
2024/01/27 00:51:55;;;;;;;;;;;;;;;;;;4981078;28;25085;-68
2024/01/27 00:54:25;;;;;;;;;;;;;;;;;;4979816;28;25154;-67
2024/01/27 00:56:52;;;;;;;;;;;;;;;;;;4991268;28;25106;-67
2024/01/27 00:59:19;;;;;;;;;;;;;;;;;;4985337;28;25067;-67
2024/01/27 01:01:46;;;;;;;;;;;;;;;;;;4984602;28;25069;-67
2024/01/27 01:04:13;;;;;;;;;;;;;;;;;;4980753;28;25061;-68
2024/01/27 01:06:40;;;;;;;;;;;;;;;;;;4981612;28;25075;-67
2024/01/27 01:09:08;;;;;;;;;;;;;;;;;;4971960;28;25066;-68
2024/01/27 01:11:38;;;;;;;;;;;;;;;;;;4969269;28;25110;-68
2024/01/27 01:14:06;;;;;;;;;;;;;;;;;;4975772;28;25063;-68
2024/01/27 01:16:33;;;;;;;;;;;;;;;;;;4956035;28;25158;-68
2024/01/27 01:19:00;;;;;;;;;;;;;;;;;;4965806;28;25134;-68
2024/01/27 01:21:28;;;;;;;;;;;;;;;;;;4964050;28;25100;-68
2024/01/27 01:23:55;;;;;;;;;;;;;;;;;;4967899;28;25139;-68
2024/01/27 01:26:25;;;;;;;;;;;;;;;;;;4972165;28;25067;-67
2024/01/27 01:28:52;;;;;;;;;;;;;;;;;;4969766;28;25118;-67
2024/01/27 01:31:19;;;;;;;;;;;;;;;;;;4964672;28;25142;-68
2024/01/27 01:33:46;;;;;;;;;;;;;;;;;;4966573;28;26191;-67
2024/01/27 01:36:14;;;;;;;;;;;;;;;;;;4968496;28;25081;-68
2024/01/27 01:38:41;;;;;;;;;;;;;;;;;;4956876;28;25065;-68
2024/01/27 01:41:08;;;;;;;;;;;;;;;;;;4974464;28;25088;-68
2024/01/27 01:43:35;;;;;;;;;;;;;;;;;;4969872;28;25113;-68
2024/01/27 01:46:05;;;;;;;;;;;;;;;;;;4903679;28;280150;-68
2024/01/27 01:48:32;;;;;;;;;;;;;;;;;;4876496;28;216730;-68
2024/01/27 01:51:52;;;;;;;;;;;;;;;;;;5036878;27;45308;-68
2024/01/27 01:54:54;;;;;;;;;;;;;;;;;;4902152;27;85781;-68
2024/01/27 01:57:21;;;;;;;;;;;;;;;;;;4901991;28;469656;-68
2024/01/27 01:59:48;;;;;;;;;;;;;;;;;;5088922;28;25052;-68
2024/01/27 02:02:16;;;;;;;;;;;;;;;;;;5076921;28;25060;-68
2024/01/27 02:04:43;;;;;;;;;;;;;;;;;;5080103;28;39774;-67
2024/01/27 02:07:10;;;;;;;;;;;;;;;;;;5084073;28;25067;-68
2024/01/27 02:09:37;;;;;;;;;;;;;;;;;;5074495;28;25071;-67
2024/01/27 02:12:04;;;;;;;;;;;;;;;;;;5089682;28;25076;-68
2024/01/27 02:14:32;;;;;;;;;;;;;;;;;;5084683;28;25082;-68
2024/01/27 02:17:02;;;;;;;;;;;;;;;;;;5093948;28;25081;-68
2024/01/27 02:19:29;;;;;;;;;;;;;;;;;;4596399;28;4438219;-68
2024/01/27 02:21:56;;;;;;;;;;;;;;;;;;4732271;28;1577287;-68
2024/01/27 02:24:24;;;;;;;;;;;;;;;;;;4575875;28;2606215;-68
2024/01/27 02:26:51;;;;;;;;;;;;;;;;;;4645519;28;1575199;-68
2024/01/27 02:29:27;;;;;;;;;;;;;;;;;;4753905;28;1580203;-68
2024/01/27 02:31:55;;;;;;;;;;;;;;;;;;4738489;28;1299188;-68
2024/01/27 02:34:22;;;;;;;;;;;;;;;;;;4728843;28;886173;-68
2024/01/27 02:36:49;;;;;;;;;;;;;;;;;;4701631;28;1254164;-68
2024/01/27 02:39:16;;;;;;;;;;;;;;;;;;4685903;28;1678198;-68
2024/01/27 02:41:45;;;;;;;;;;;;;;;;;;4794909;28;952263;-68
2024/01/27 02:44:15;;;;;;;;;;;;;;;;;;4822890;28;564167;-68
2024/01/27 02:46:44;;;;;;;;;;;;;;;;;;4764291;28;970187;-68
2024/01/27 02:49:11;;;;;;;;;;;;;;;;;;4751957;28;834162;-68
2024/01/27 02:51:38;;;;;;;;;;;;;;;;;;4895148;28;209154;-68
2024/01/27 02:54:06;;;;;;;;;;;;;;;;;;4934164;28;25164;-68
2024/01/27 02:56:33;;;;;;;;;;;;;;;;;;4975579;28;25071;-68
2024/01/27 02:59:00;;;;;;;;;;;;;;;;;;5028349;28;25095;-68
2024/01/27 03:01:30;;;;;;;;;;;;;;;;;;4957379;28;25078;-68
2024/01/27 03:03:57;;;;;;;;;;;;;;;;;;5032730;28;260169;-68
2024/01/27 03:06:27;;;;;;;;;;;;;;;;;;4642948;28;1804188;-68
2024/01/27 03:08:55;;;;;;;;;;;;;;;;;;4594240;28;1800183;-68
2024/01/27 03:11:23;;;;;;;;;;;;;;;;;;4533200;28;2914203;-68
2024/01/27 03:13:53;;;;;;;;;;;;;;;;;;4579928;28;2388216;-68
2024/01/27 03:16:20;;;;;;;;;;;;;;;;;;4592478;28;2454186;-68
2024/01/27 03:18:51;;;;;;;;;;;;;;;;;;4530858;28;2812191;-68
2024/01/27 03:21:19;;;;;;;;;;;;;;;;;;4594698;28;1992170;-68
2024/01/27 03:23:47;;;;;;;;;;;;;;;;;;4643813;28;2392350;-68
2024/01/27 03:26:18;;;;;;;;;;;;;;;;;;4411891;28;6179225;-68
2024/01/27 03:28:46;;;;;;;;;;;;;;;;;;4536143;28;1863194;-68
2024/01/27 03:31:13;;;;;;;;;;;;;;;;;;4484703;28;2436212;-68
2024/01/27 03:33:42;;;;;;;;;;;;;;;;;;4549184;28;3015171;-68
2024/01/27 03:36:11;;;;;;;;;;;;;;;;;;4408968;28;11118222;-68
2024/01/27 03:38:40;;;;;;;;;;;;;;;;;;4507643;28;2071199;-68
2024/01/27 03:41:08;;;;;;;;;;;;;;;;;;4468347;28;4250191;-68
2024/01/27 03:43:35;;;;;;;;;;;;;;;;;;4527554;28;2464183;-68
2024/01/27 03:46:03;;;;;;;;;;;;;;;;;;4552566;28;2359201;-68
2024/01/27 03:48:30;;;;;;;;;;;;;;;;;;4548832;28;3339183;-68
2024/01/27 03:50:57;;;;;;;;;;;;;;;;;;4595054;28;2909197;-68
2024/01/27 03:53:25;;;;;;;;;;;;;;;;;;4586947;28;3341200;-68
2024/01/27 03:55:52;;;;;;;;;;;;;;;;;;4614362;28;1864251;-68
2024/01/27 03:58:19;;;;;;;;;;;;;;;;;;4613381;28;3610185;-68
2024/01/27 04:00:46;;;;;;;;;;;;;;;;;;4579927;28;1478206;-68
2024/01/27 04:03:14;;;;;;;;;;;;;;;;;;4665141;28;1267225;-68
2024/01/27 04:05:44;;;;;;;;;;;;;;;;;;4540970;28;5156272;-68
2024/01/27 04:08:12;;;;;;;;;;;;;;;;;;4617959;28;1804197;-68
2024/01/27 04:10:39;;;;;;;;;;;;;;;;;;4611896;28;1043268;-68
2024/01/27 04:13:07;;;;;;;;;;;;;;;;;;4493030;28;3019232;-68
2024/01/27 04:15:38;;;;;;;;;;;;;;;;;;4606138;28;1780298;-68
2024/01/27 04:18:08;;;;;;;;;;;;;;;;;;4496092;28;3877237;-68
2024/01/27 04:20:35;;;;;;;;;;;;;;;;;;4452949;28;5025190;-68
2024/01/27 04:23:03;;;;;;;;;;;;;;;;;;4548578;28;2877253;-68
2024/01/27 04:25:30;;;;;;;;;;;;;;;;;;4598662;28;2128212;-68
2024/01/27 04:27:57;;;;;;;;;;;;;;;;;;4541047;28;3639194;-68
2024/01/27 04:30:25;;;;;;;;;;;;;;;;;;4553145;28;3481208;-68
2024/01/27 04:32:53;;;;;;;;;;;;;;;;;;4546607;28;3124230;-68
2024/01/27 04:35:21;;;;;;;;;;;;;;;;;;4495382;28;3702191;-68
2024/01/27 04:37:48;;;;;;;;;;;;;;;;;;4514050;28;3013225;-68
2024/01/27 04:40:16;;;;;;;;;;;;;;;;;;4647062;28;2026180;-68
2024/01/27 04:42:46;;;;;;;;;;;;;;;;;;4495535;28;4528192;-68
2024/01/27 04:45:14;;;;;;;;;;;;;;;;;;4466362;28;6578209;-68
2024/01/27 04:47:48;;;;;;;;;;;;;;;;;;4521470;28;3732199;-68
2024/01/27 04:50:19;;;;;;;;;;;;;;;;;;4675869;28;1273188;-68
2024/01/27 04:52:48;;;;;;;;;;;;;;;;;;4675468;28;1831204;-68
2024/01/27 04:55:15;;;;;;;;;;;;;;;;;;4712126;28;1891199;-68
2024/01/27 04:57:43;;;;;;;;;;;;;;;;;;4734500;28;1049202;-68
2024/01/27 05:00:12;;;;;;;;;;;;;;;;;;4642007;28;1766197;-68
2024/01/27 05:02:40;;;;;;;;;;;;;;;;;;4588331;28;2333194;-68
2024/01/27 05:05:08;;;;;;;;;;;;;;;;;;4616205;28;1923219;-68
2024/01/27 05:07:35;;;;;;;;;;;;;;;;;;4641059;28;1289227;-68
2024/01/27 05:10:03;;;;;;;;;;;;;;;;;;4734374;28;1111171;-68
2024/01/27 05:12:34;;;;;;;;;;;;;;;;;;4810147;28;1189192;-68
2024/01/27 05:15:02;;;;;;;;;;;;;;;;;;4632115;28;1349187;-68
2024/01/27 05:17:30;;;;;;;;;;;;;;;;;;4585531;28;3693925;-68
2024/01/27 05:19:57;;;;;;;;;;;;;;;;;;4698202;28;1475184;-68
2024/01/27 05:22:24;;;;;;;;;;;;;;;;;;4651898;28;1702192;-68
2024/01/27 05:24:52;;;;;;;;;;;;;;;;;;4678189;28;1150209;-68
2024/01/27 05:27:19;;;;;;;;;;;;;;;;;;4750483;28;973220;-67
2024/01/27 05:29:46;;;;;;;;;;;;;;;;;;4661139;28;3659254;-67
2024/01/27 05:32:14;;;;;;;;;;;;;;;;;;4592219;28;3101199;-68
2024/01/27 05:34:43;;;;;;;;;;;;;;;;;;4593416;28;3639178;-67
2024/01/27 05:37:10;;;;;;;;;;;;;;;;;;4623204;28;1345193;-67
2024/01/27 05:39:39;;;;;;;;;;;;;;;;;;4629018;28;3323199;-68
2024/01/27 05:42:07;;;;;;;;;;;;;;;;;;4544742;28;2197179;-67
2024/01/27 05:44:37;;;;;;;;;;;;;;;;;;4696793;28;1991188;-67
2024/01/27 05:47:05;;;;;;;;;;;;;;;;;;4749381;28;864202;-67
2024/01/27 05:49:34;;;;;;;;;;;;;;;;;;4631544;28;2357207;-67
2024/01/27 05:52:01;;;;;;;;;;;;;;;;;;4668736;28;1499206;-68
2024/01/27 05:54:29;;;;;;;;;;;;;;;;;;4661367;28;1333206;-67
2024/01/27 05:56:58;;;;;;;;;;;;;;;;;;4625553;28;2244182;-67
2024/01/27 05:59:30;;;;;;;;;;;;;;;;;;4522722;28;4678226;-68
2024/01/27 06:02:03;;;;;;;;;;;;;;;;;;4463546;28;5726205;-68
2024/01/27 06:04:33;;;;;;;;;;;;;;;;;;4464074;28;3016268;-68
2024/01/27 06:07:01;;;;;;;;;;;;;;;;;;4551214;28;2913207;-68
2024/01/27 06:09:28;;;;;;;;;;;;;;;;;;4576569;28;3574197;-68
2024/01/27 06:11:55;;;;;;;;;;;;;;;;;;4633407;28;1767199;-68
2024/01/27 06:14:23;;;;;;;;;;;;;;;;;;4503510;28;3996222;-68
2024/01/27 06:16:51;;;;;;;;;;;;;;;;;;4597564;28;1319165;-68
2024/01/27 06:19:19;;;;;;;;;;;;;;;;;;4614039;28;1846211;-67
2024/01/27 06:21:47;;;;;;;;;;;;;;;;;;4749979;28;985180;-68
2024/01/27 06:24:15;;;;;;;;;;;;;;;;;;4624210;28;1831264;-68
2024/01/27 06:26:42;;;;;;;;;;;;;;;;;;4674916;28;2643206;-68
2024/01/27 06:29:09;;;;;;;;;;;;;;;;;;4564853;28;1877202;-68
2024/01/27 06:31:37;;;;;;;;;;;;;;;;;;4643204;28;1341190;-67
2024/01/27 06:34:08;;;;;;;;;;;;;;;;;;4574425;28;2155183;-68
2024/01/27 06:36:38;;;;;;;;;;;;;;;;;;4579225;28;1968904;-67
2024/01/27 06:39:08;;;;;;;;;;;;;;;;;;4604454;28;1949204;-68
2024/01/27 06:41:36;;;;;;;;;;;;;;;;;;4530749;28;4660211;-67
2024/01/27 06:44:07;;;;;;;;;;;;;;;;;;4462019;28;3911229;-68
2024/01/27 06:46:34;;;;;;;;;;;;;;;;;;4720925;28;1735192;-67
2024/01/27 06:49:02;;;;;;;;;;;;;;;;;;4558945;28;3380232;-67
2024/01/27 06:51:30;;;;;;;;;;;;;;;;;;4604620;28;1957229;-67
2024/01/27 06:53:58;;;;;;;;;;;;;;;;;;4631925;28;2138236;-67
2024/01/27 06:56:26;;;;;;;;;;;;;;;;;;4537879;28;3416181;-67
2024/01/27 06:58:53;;;;;;;;;;;;;;;;;;4626433;28;2266269;-67
2024/01/27 07:01:21;;;;;;;;;;;;;;;;;;4650287;28;1392192;-67
2024/01/27 07:03:48;;;;;;;;;;;;;;;;;;4483260;28;3775215;-67
2024/01/27 07:06:16;;;;;;;;;;;;;;;;;;4578853;28;2041203;-67
2024/01/27 07:08:43;;;;;;;;;;;;;;;;;;4538773;28;3437211;-67
2024/01/27 07:11:12;;;;;;;;;;;;;;;;;;4501586;28;3226180;-67
2024/01/27 07:13:39;;;;;;;;;;;;;;;;;;4472201;28;3763209;-67
2024/01/27 07:16:07;;;;;;;;;;;;;;;;;;4497906;28;2964195;-67
2024/01/27 07:18:35;;;;;;;;;;;;;;;;;;4535919;28;2562189;-67
2024/01/27 07:21:02;;;;;;;;;;;;;;;;;;4631095;28;3385220;-67
2024/01/27 07:23:35;;;;;;;;;;;;;;;;;;4520484;28;3969243;-67
2024/01/27 07:26:05;;;;;;;;;;;;;;;;;;4574333;28;3700256;-67
2024/01/27 07:28:34;;;;;;;;;;;;;;;;;;4523118;28;2177202;-67
2024/01/27 07:31:01;;;;;;;;;;;;;;;;;;4729971;28;1543193;-67
2024/01/27 07:33:28;;;;;;;;;;;;;;;;;;4510588;28;2680297;-67
2024/01/27 07:35:56;;;;;;;;;;;;;;;;;;4502947;28;3811192;-67
2024/01/27 07:38:24;;;;;;;;;;;;;;;;;;4665215;28;1897194;-67
2024/01/27 07:40:52;;;;;;;;;;;;;;;;;;4530852;28;5207184;-67
2024/01/27 07:43:22;;;;;;;;;;;;;;;;;;4630830;28;2703202;-67
2024/01/27 07:45:52;;;;;;;;;;;;;;;;;;4645979;28;1369260;-67
2024/01/27 07:48:20;;;;;;;;;;;;;;;;;;4685581;28;2151189;-67
2024/01/27 07:50:49;;;;;;;;;;;;;;;;;;4674655;28;3293213;-67
2024/01/27 07:53:19;;;;;;;;;;;;;;;;;;4659679;28;1418211;-67
2024/01/27 07:55:46;;;;;;;;;;;;;;;;;;4761971;28;1106153;-67
2024/01/27 07:58:14;;;;;;;;;;;;;;;;;;4759825;28;872192;-67
2024/01/27 08:00:42;;;;;;;;;;;;;;;;;;4740265;28;1351202;-67
2024/01/27 08:03:09;;;;;;;;;;;;;;;;;;4841915;28;371177;-67
2024/01/27 08:05:36;;;;;;;;;;;;;;;;;;4829145;28;433182;-67
2024/01/27 08:08:04;;;;;;;;;;;;;;;;;;4816354;28;680176;-67
2024/01/27 08:10:32;;;;;;;;;;;;;;;;;;4785599;28;952201;-67
2024/01/27 08:13:00;;;;;;;;;;;;;;;;;;4815661;28;902252;-67
2024/01/27 08:15:27;;;;;;;;;;;;;;;;;;4818097;28;802208;-67
2024/01/27 08:17:54;;;;;;;;;;;;;;;;;;4840880;28;1148193;-67
2024/01/27 08:20:22;;;;;;;;;;;;;;;;;;4778657;28;951236;-67
2024/01/27 08:22:51;;;;;;;;;;;;;;;;;;4853424;28;562204;-67
2024/01/27 08:25:18;;;;;;;;;;;;;;;;;;4743699;28;823181;-67
2024/01/27 08:27:46;;;;;;;;;;;;;;;;;;4823384;28;607183;-67
2024/01/27 08:30:13;;;;;;;;;;;;;;;;;;4743465;28;1085218;-67
2024/01/27 08:32:40;;;;;;;;;;;;;;;;;;4835404;28;438160;-66
2024/01/27 08:35:10;;;;;;;;;;;;;;;;;;4883826;28;245184;-67
2024/01/27 08:37:38;;;;;;;;;;;;;;;;;;4784378;28;744158;-66
2024/01/27 08:40:07;;;;;;;;;;;;;;;;;;4860552;28;365178;-66
2024/01/27 08:42:34;;;;;;;;;;;;;;;;;;4835899;28;811206;-66
2024/01/27 08:45:05;;;;;;;;;;;;;;;;;;4852670;28;445184;-66
2024/01/27 08:47:32;;;;;;;;;;;;;;;;;;4857011;28;272164;-66
2024/01/27 08:49:59;;;;;;;;;;;;;;;;;;4843975;28;542166;-66
2024/01/27 08:52:27;;;;;;;;;;;;;;;;;;4849958;28;350200;-66
2024/01/27 08:54:54;;;;;;;;;;;;;;;;;;4772975;28;512178;-66
2024/01/27 08:57:21;;;;;;;;;;;;;;;;;;4739691;28;645178;-66
2024/01/27 08:59:48;;;;;;;;;;;;;;;;;;4854293;28;538176;-66
2024/01/27 09:02:15;;;;;;;;;;;;;;;;;;4848090;28;492188;-66
2024/01/27 09:04:43;;;;;;;;;;;;;;;;;;4861227;28;354196;-66
2024/01/27 09:07:14;;;;;;;;;;;;;;;;;;4836042;28;837203;-66
2024/01/27 09:09:41;;;;;;;;;;;;;;;;;;4840793;28;484176;-66
2024/01/27 09:12:08;;;;;;;;;;;;;;;;;;4851336;28;481156;-66
2024/01/27 09:14:35;;;;;;;;;;;;;;;;;;4854657;28;324172;-66
2024/01/27 09:17:02;;;;;;;;;;;;;;;;;;4896455;28;139163;-66
2024/01/27 09:19:29;;;;;;;;;;;;;;;;;;4891380;28;191176;-67
2024/01/27 09:21:57;;;;;;;;;;;;;;;;;;4901121;28;244181;-67
2024/01/27 09:24:27;;;;;;;;;;;;;;;;;;4868223;28;249179;-67
2024/01/27 09:26:57;;;;;;;;;;;;;;;;;;4862602;28;511177;-72
2024/01/27 09:29:24;;;;;;;;;;;;;;;;;;4838655;28;414179;-66
2024/01/27 09:31:51;;;;;;;;;;;;;;;;;;4888171;28;266163;-65
2024/01/27 09:34:18;;;;;;;;;;;;;;;;;;4836790;28;466191;-66
2024/01/27 09:36:46;;;;;;;;;;;;;;;;;;4897574;28;188166;-66
2024/01/27 09:39:13;;;;;;;;;;;;;;;;;;4918137;28;123162;-66
2024/01/27 09:41:40;;;;;;;;;;;;;;;;;;4900933;28;153196;-66
2024/01/27 09:44:08;;;;;;;;;;;;;;;;;;4913661;28;204168;-66
2024/01/27 09:46:35;;;;;;;;;;;;;;;;;;4919196;28;226190;-66
2024/01/27 09:49:02;;;;;;;;;;;;;;;;;;4936173;28;57098;-66
2024/01/27 09:51:29;;;;;;;;;;;;;;;;;;4947816;28;37132;-66
2024/01/27 09:53:56;;;;;;;;;;;;;;;;;;4948235;28;45142;-66
2024/01/27 09:56:24;;;;;;;;;;;;;;;;;;4941723;28;49091;-66
2024/01/27 09:58:55;;;;;;;;;;;;;;;;;;4936058;28;75158;-66
2024/01/27 10:01:22;;;;;;;;;;;;;;;;;;4933046;28;98103;-66
2024/01/27 10:03:55;;;;;;;;;;;;;;;;;;4930068;28;104167;-66
2024/01/27 10:06:22;;;;;;;;;;;;;;;;;;4908698;28;182148;-67
2024/01/27 10:08:49;;;;;;;;;;;;;;;;;;4893036;28;282178;-67
2024/01/27 10:11:17;;;;;;;;;;;;;;;;;;4912955;28;131152;-67
2024/01/27 10:13:44;;;;;;;;;;;;;;;;;;4944163;28;101153;-67
2024/01/27 10:16:12;;;;;;;;;;;;;;;;;;4933193;28;123161;-66
2024/01/27 10:18:39;;;;;;;;;;;;;;;;;;4902042;28;484170;-67
2024/01/27 10:21:07;;;;;;;;;;;;;;;;;;4915730;28;179140;-67
2024/01/27 10:23:34;;;;;;;;;;;;;;;;;;4923213;28;26067;-67
2024/01/27 10:26:01;;;;;;;;;;;;;;;;;;4908116;28;28063;-66
2024/01/27 10:28:35;;;;;;;;;;;;;;;;;;4876625;28;27079;-67
2024/01/27 10:31:02;;;;;;;;;;;;;;;;;;4854855;28;26120;-67
2024/01/27 10:33:31;;;;;;;;;;;;;;;;;;4856475;28;29081;-66
2024/01/27 10:35:59;;;;;;;;;;;;;;;;;;4866412;28;25073;-67
2024/01/27 10:38:26;;;;;;;;;;;;;;;;;;4831863;28;25075;-67
2024/01/27 10:40:53;;;;;;;;;;;;;;;;;;4684976;28;467008;-67
2024/01/27 10:43:23;;;;;;;;;;;;;;;;;;4784334;28;26099;-67
2024/01/27 10:45:51;;;;;;;;;;;;;;;;;;4777032;28;25120;-67
2024/01/27 10:48:18;;;;;;;;;;;;;;;;;;4861608;28;25821;-67
2024/01/27 10:50:45;;;;;;;;;;;;;;;;;;4770867;28;624735;-67
2024/01/27 10:54:39;;;;;;;;;;;;;;;;;;4748812;27;118547;-67
2024/01/27 10:58:41;;;;;;;;;;;;;;;;;;4747965;27;212425;-65
2024/01/27 11:01:10;;;;;;;;;;;;;;;;;;5055290;28;20559;-65
2024/01/27 11:03:37;;;;;;;;;;;;;;;;;;5051979;28;42077;-67
2024/01/27 11:10:22;;;;;;;;;;;;;;;;;;5120343;27;19915;-65
2024/01/27 11:12:50;;;;;;;;;;;;;;;;;;5103047;28;19959;-63
2024/01/27 11:15:17;;;;;;;;;;;;;;;;;;5102517;28;19924;-65
2024/01/27 11:17:46;;;;;;;;;;;;;;;;;;5096148;28;20700;-66
2024/01/27 11:20:16;;;;;;;;;;;;;;;;;;5104850;28;19931;-66
2024/01/27 11:22:43;;;;;;;;;;;;;;;;;;5108631;28;19924;-66
2024/01/27 11:25:10;;;;;;;;;;;;;;;;;;5077847;28;121406;-66
2024/01/27 11:27:37;;;;;;;;;;;;;;;;;;5106967;28;19920;-66
2024/01/27 11:30:04;;;;;;;;;;;;;;;;;;5097278;28;19962;-65
2024/01/27 11:32:32;;;;;;;;;;;;;;;;;;5103952;28;19924;-66
2024/01/27 11:35:00;;;;;;;;;;;;;;;;;;5116917;27;19919;-66
2024/01/27 11:37:27;;;;;;;;;;;;;;;;;;5107452;28;19919;-66
2024/01/27 11:39:54;;;;;;;;;;;;;;;;;;5115408;28;19976;-66
2024/01/27 11:42:21;;;;;;;;;;;;;;;;;;5101998;28;20011;-66
2024/01/27 11:44:48;;;;;;;;;;;;;;;;;;5099803;28;40259;-66
2024/01/27 11:47:15;;;;;;;;;;;;;;;;;;4806509;27;445785;-66
2024/01/27 11:50:57;;;;;;;;;;;;;;;;;;4690399;28;234120;-65
2024/01/27 11:53:24;;;;;;;;;;;;;;;;;;4735485;28;29089;-66
2024/01/27 11:55:51;;;;;;;;;;;;;;;;;;4454916;28;633704;-65
2024/01/27 11:58:19;;;;;;;;;;;;;;;;;;4579387;28;20866;-65
2024/01/27 12:00:47;;;;;;;;;;;;;;;;;;4823401;28;186991;-65
2024/01/27 12:03:14;;;;;;;;;;;;;;;;;;5017926;28;25591;-65
2024/01/27 12:05:41;;;;;;;;;;;;;;;;;;5021943;28;25062;-65
2024/01/27 12:08:08;;;;;;;;;;;;;;;;;;4853481;28;146993;-65
2024/01/27 12:10:35;;;;;;;;;;;;;;;;;;4814492;28;42993;-67
2024/01/27 12:13:02;;;;;;;;;;;;;;;;;;4807375;28;39298;-67
2024/01/27 12:15:29;;;;;;;;;;;;;;;;;;4745020;28;25116;-68
2024/01/27 12:17:57;;;;;;;;;;;;;;;;;;4589658;28;633082;-65
2024/01/27 12:20:24;;;;;;;;;;;;;;;;;;4755310;28;29067;-65
2024/01/27 12:22:52;;;;;;;;;;;;;;;;;;4718076;28;110846;-65
2024/01/27 12:33:09;;;;;;;;;;;;;;;;;;4655571;27;228935;-78
2024/01/27 12:35:37;;;;;;;;;;;;;;;;;;4582011;28;309645;-78
2024/01/27 12:38:04;;;;;;;;;;;;;;;;;;5072974;28;19943;-78
2024/01/27 12:41:26;;;;;;;;;;;;;;;;;;4856295;27;496994;-68
2024/01/27 12:43:54;;;;;;;;;;;;;;;;;;5077545;28;36581;-68
2024/01/27 12:46:21;;;;;;;;;;;;;;;;;;5073004;28;20008;-67
2024/01/27 12:48:48;;;;;;;;;;;;;;;;;;5074021;28;24110;-67
2024/01/27 12:51:45;;;;;;;;;;;;;;;;;;4841554;27;614811;-67
2024/01/27 12:54:13;;;;;;;;;;;;;;;;;;5043903;28;65461;-67
2024/01/27 12:56:42;;;;;;;;;;;;;;;;;;5132152;27;20353;-68
2024/01/27 12:59:13;;;;;;;;;;;;;;;;;;5093733;28;20015;-67
2024/01/27 13:01:41;;;;;;;;;;;;;;;;;;5102084;28;19920;-68
2024/01/27 13:04:08;;;;;;;;;;;;;;;;;;5104252;28;19920;-68
2024/01/27 13:06:37;;;;;;;;;;;;;;;;;;5099352;28;19926;-68
2024/01/27 13:09:04;;;;;;;;;;;;;;;;;;5102783;27;19919;-68
2024/01/27 13:11:32;;;;;;;;;;;;;;;;;;5094864;28;20414;-68
2024/01/27 13:13:59;;;;;;;;;;;;;;;;;;5087904;28;19952;-68
2024/01/27 13:16:26;;;;;;;;;;;;;;;;;;5104889;28;20358;-68
2024/01/27 13:18:55;;;;;;;;;;;;;;;;;;5098524;28;19924;-68
2024/01/27 13:21:22;;;;;;;;;;;;;;;;;;5100264;28;20002;-69
2024/01/27 13:23:52;;;;;;;;;;;;;;;;;;5099321;28;20149;-68
2024/01/27 13:26:19;;;;;;;;;;;;;;;;;;5104640;28;19927;-68
2024/01/27 13:28:51;;;;;;;;;;;;;;;;;;5101077;28;19927;-66
2024/01/27 13:31:18;;;;;;;;;;;;;;;;;;5096050;28;20007;-67
2024/01/27 13:33:45;;;;;;;;;;;;;;;;;;5101557;28;20036;-67
2024/01/27 13:36:13;;;;;;;;;;;;;;;;;;5091524;28;19926;-67
2024/01/27 13:38:40;;;;;;;;;;;;;;;;;;5101155;28;19921;-67
2024/01/27 13:41:10;;;;;;;;;;;;;;;;;;5088456;28;25071;-67
2024/01/27 13:43:40;;;;;;;;;;;;;;;;;;5078284;28;99864;-67
2024/01/27 13:46:07;;;;;;;;;;;;;;;;;;4851760;28;600991;-67
2024/01/27 13:48:34;;;;;;;;;;;;;;;;;;5098173;28;19920;-67
2024/01/27 13:51:02;;;;;;;;;;;;;;;;;;5101995;28;19920;-66
2024/01/27 13:54:51;;;;;;;;;;;;;;;;;;4923610;27;128735;-67
2024/01/27 13:57:18;;;;;;;;;;;;;;;;;;4937003;28;28106;-67
2024/01/27 13:59:45;;;;;;;;;;;;;;;;;;4947625;28;25104;-67
2024/01/27 14:02:13;;;;;;;;;;;;;;;;;;4944076;28;25085;-67
2024/01/27 14:04:40;;;;;;;;;;;;;;;;;;4951519;28;25059;-68
2024/01/27 14:07:09;;;;;;;;;;;;;;;;;;4952894;28;25276;-67
2024/01/27 14:09:36;;;;;;;;;;;;;;;;;;4949705;28;25117;-67
2024/01/27 14:12:03;;;;;;;;;;;;;;;;;;4721363;28;28062;-68
2024/01/27 14:14:31;;;;;;;;;;;;;;;;;;4665029;28;26074;-68
2024/01/27 14:16:58;;;;;;;;;;;;;;;;;;4859334;28;25090;-67
2024/01/27 14:19:26;;;;;;;;;;;;;;;;;;4868134;28;27086;-67
2024/01/27 14:21:54;;;;;;;;;;;;;;;;;;4816781;28;27681;-68
2024/01/27 14:25:40;;;;;;;;;;;;;;;;;;4751468;28;21579;-68
2024/01/27 14:30:21;;;;;;;;;;;;;;;;;;4554613;28;978051;-67
2024/01/27 14:32:48;;;;;;;;;;;;;;;;;;4775045;28;26104;-68
2024/01/27 14:35:16;;;;;;;;;;;;;;;;;;4672379;28;25060;-68
2024/01/27 14:37:45;;;;;;;;;;;;;;;;;;4829446;28;25149;-68
2024/01/27 14:40:13;;;;;;;;;;;;;;;;;;4763363;28;25068;-68
2024/01/27 14:42:41;;;;;;;;;;;;;;;;;;4874904;28;25077;-68
2024/01/27 14:45:08;;;;;;;;;;;;;;;;;;4850975;28;28121;-68
2024/01/27 14:47:36;;;;;;;;;;;;;;;;;;4816007;28;29148;-68
2024/01/27 14:50:03;;;;;;;;;;;;;;;;;;4902791;28;24981;-68
2024/01/27 14:52:31;;;;;;;;;;;;;;;;;;4917222;28;25080;-68
2024/01/27 14:54:58;;;;;;;;;;;;;;;;;;4906277;28;29061;-68
2024/01/27 14:57:26;;;;;;;;;;;;;;;;;;4902213;28;27064;-68
2024/01/27 14:59:53;;;;;;;;;;;;;;;;;;4899862;28;25082;-68
2024/01/27 15:02:20;;;;;;;;;;;;;;;;;;4906051;28;25174;-69
2024/01/27 15:04:50;;;;;;;;;;;;;;;;;;4866851;28;27074;-68
2024/01/27 15:07:17;;;;;;;;;;;;;;;;;;4898327;28;28096;-68
2024/01/27 15:09:48;;;;;;;;;;;;;;;;;;4889670;28;26085;-68
2024/01/27 15:12:16;;;;;;;;;;;;;;;;;;4900719;28;27080;-68
2024/01/27 15:14:43;;;;;;;;;;;;;;;;;;4899551;28;25091;-68
2024/01/27 15:17:10;;;;;;;;;;;;;;;;;;4898842;28;25083;-68
2024/01/27 15:19:37;;;;;;;;;;;;;;;;;;4900225;28;27096;-68
2024/01/27 15:22:08;;;;;;;;;;;;;;;;;;4925615;28;29169;-68
2024/01/27 15:24:39;;;;;;;;;;;;;;;;;;4848568;28;25146;-68
2024/01/27 15:27:06;;;;;;;;;;;;;;;;;;4873841;28;25152;-68
2024/01/27 15:29:37;;;;;;;;;;;;;;;;;;4812034;28;25068;-68
2024/01/27 15:32:07;;;;;;;;;;;;;;;;;;4870773;28;25145;-68
2024/01/27 15:34:34;;;;;;;;;;;;;;;;;;4798822;28;25122;-68
2024/01/27 15:37:01;;;;;;;;;;;;;;;;;;4761417;28;25114;-68
2024/01/27 15:39:29;;;;;;;;;;;;;;;;;;4823043;28;25082;-68
2024/01/27 15:41:57;;;;;;;;;;;;;;;;;;4816417;28;25132;-68
2024/01/27 15:44:25;;;;;;;;;;;;;;;;;;4817137;28;25090;-68
2024/01/27 15:46:52;;;;;;;;;;;;;;;;;;4820238;28;28159;-69
2024/01/27 15:49:20;;;;;;;;;;;;;;;;;;4815067;28;25110;-68
2024/01/27 15:51:47;;;;;;;;;;;;;;;;;;4811603;28;29102;-68
2024/01/27 15:54:22;;;;;;;;;;;;;;;;;;4820651;28;25072;-69
2024/01/27 15:56:51;;;;;;;;;;;;;;;;;;4825781;28;29072;-68
2024/01/27 15:59:18;;;;;;;;;;;;;;;;;;4779770;28;25077;-68
2024/01/27 16:01:46;;;;;;;;;;;;;;;;;;4743132;28;26086;-68
2024/01/27 16:04:16;;;;;;;;;;;;;;;;;;4743898;28;28110;-68
2024/01/27 16:06:44;;;;;;;;;;;;;;;;;;4826003;28;29066;-68
2024/01/27 16:09:12;;;;;;;;;;;;;;;;;;4844085;28;28140;-68
2024/01/27 16:11:39;;;;;;;;;;;;;;;;;;4883867;28;25288;-68
2024/01/27 16:14:06;;;;;;;;;;;;;;;;;;4791834;28;26079;-68
2024/01/27 16:16:33;;;;;;;;;;;;;;;;;;4787321;28;25069;-68
2024/01/27 16:19:01;;;;;;;;;;;;;;;;;;4773736;28;25098;-68
2024/01/27 16:21:31;;;;;;;;;;;;;;;;;;4769686;28;29066;-68
2024/01/27 16:23:59;;;;;;;;;;;;;;;;;;4774041;28;25086;-68
2024/01/27 16:26:27;;;;;;;;;;;;;;;;;;4831522;28;27145;-68
2024/01/27 16:28:54;;;;;;;;;;;;;;;;;;4782453;28;25055;-68
2024/01/27 16:31:21;;;;;;;;;;;;;;;;;;4776100;28;24864;-68
2024/01/27 16:33:48;;;;;;;;;;;;;;;;;;4768326;28;27124;-69
2024/01/27 16:36:16;;;;;;;;;;;;;;;;;;4748254;28;25066;-69
2024/01/27 16:38:44;;;;;;;;;;;;;;;;;;4742728;28;27166;-68
2024/01/27 16:41:11;;;;;;;;;;;;;;;;;;4719635;28;25063;-68
2024/01/27 16:43:38;;;;;;;;;;;;;;;;;;4729564;28;28068;-68
2024/01/27 16:46:07;;;;;;;;;;;;;;;;;;4828700;28;28099;-69
2024/01/27 16:48:35;;;;;;;;;;;;;;;;;;4748659;28;24880;-69
2024/01/27 16:51:03;;;;;;;;;;;;;;;;;;4807267;28;28050;-69
2024/01/27 16:53:32;;;;;;;;;;;;;;;;;;4799999;28;29087;-69
2024/01/27 16:56:00;;;;;;;;;;;;;;;;;;4777953;28;28063;-69
2024/01/27 16:58:27;;;;;;;;;;;;;;;;;;4819284;28;28093;-69